Arapahoe, North Carolina
Current Conditions -  °F | °C
As of 3:54 PM on Thursday 18 Dec 2014 (Local Time) from KNKT Reporting Station
Few Clouds Few Clouds  
Wind Chill: 11°   Ceiling: Unl
Heat Index: 11°   Visibility: 10mi
Dew Point: -1°   Wind: 5mph
Humidity: 44%   Direction: 60°ENE
Pressure: 30.09"   Gusts: NA
Location:  35.03°N, 76.83°W
Report Text: KNKT 182054Z 06004KT 10SM FEW200 11/M01 A3009 RMK AO2 SLP185 T01061011 57015 $
Loading
Personal Weather Stations






























Interactive Weather Map New forecast layout! Learn more

10-Day Weather Forecast

Advertisements
Track Severe Weather on mobile